Time;durP1;ratioP1;P1;durP2;ratioP2;P2;SDS_P1;SDS_P2;PMS_P1;PMS_P2;Temp;Humidity;BMP_temperature;BMP_pressure;BME280_temperature;BME280_humidity;BME280_pressure;Samples;Min_cycle;Max_cycle;Signal;HPM_P1;HPM_P2
2022/08/15 00:01:30;;;;;;;0.40;0.40;;;21.00;97.00;;;;;;5018419;28;20431;-61
2022/08/15 00:04:00;;;;;;;0.75;0.75;;;21.00;97.00;;;;;;5024719;28;21011;-62
2022/08/15 00:06:41;;;;;;;0.63;0.63;;;20.90;97.10;;;;;;5018244;28;20506;-62
2022/08/15 00:09:17;;;;;;;0.80;0.80;;;21.00;96.90;;;;;;5018644;28;20429;-62
2022/08/15 00:11:53;;;;;;;0.60;0.60;;;21.00;96.90;;;;;;5010111;28;20433;-62
2022/08/15 00:14:24;;;;;;;0.98;0.75;;;21.10;96.90;;;;;;5009971;28;20942;-62
2022/08/15 00:17:00;;;;;;;0.50;0.50;;;21.10;96.90;;;;;;5009001;28;20814;-63
2022/08/15 00:19:31;;;;;;;0.60;0.60;;;21.10;97.10;;;;;;5018514;28;20937;-62
2022/08/15 00:22:04;;;;;;;0.40;0.40;;;21.10;97.30;;;;;;5016015;28;20435;-62
2022/08/15 00:24:48;;;;;;;0.60;0.60;;;21.00;97.50;;;;;;5011174;28;20486;-62
2022/08/15 00:27:20;;;;;;;0.70;0.70;;;21.00;97.50;;;;;;5022849;28;21028;-61
2022/08/15 00:29:52;;;;;;;0.90;0.90;;;21.00;97.50;;;;;;5009868;28;20431;-62
2022/08/15 00:32:23;;;;;;;0.60;0.60;;;20.90;97.50;;;;;;5023425;28;20430;-62
2022/08/15 00:38:11;;;;;;;0.70;0.65;;;20.90;97.50;;;;;;5020766;28;20468;-60
2022/08/15 00:44:03;;;;;;;0.60;0.60;;;21.00;97.90;;;;;;5013173;28;20614;-61
2022/08/15 00:46:33;;;;;;;0.57;0.57;;;20.90;98.10;;;;;;5025473;28;20514;-60
2022/08/15 00:49:04;;;;;;;0.60;0.60;;;20.90;97.90;;;;;;5016200;28;20446;-60
2022/08/15 00:51:44;;;;;;;0.60;0.60;;;21.10;97.70;;;;;;5010377;28;20446;-61
2022/08/15 00:54:29;;;;;;;0.68;0.68;;;21.20;97.80;;;;;;5018071;28;20815;-62
2022/08/15 00:57:27;;;;;;;0.80;0.70;;;21.40;97.70;;;;;;5010607;28;20437;-61
2022/08/15 01:00:23;;;;;;;0.40;0.40;;;21.50;97.90;;;;;;5014539;28;20505;-62
2022/08/15 01:03:07;;;;;;;0.50;0.50;;;21.50;98.20;;;;;;5019889;28;21002;-62
2022/08/15 01:05:50;;;;;;;0.40;0.40;;;21.70;98.40;;;;;;5015769;28;20445;-61
2022/08/15 01:08:21;;;;;;;0.60;0.60;;;21.70;98.40;;;;;;5020974;28;20521;-61
2022/08/15 01:11:06;;;;;;;1.20;0.60;;;21.70;98.50;;;;;;5021101;28;20438;-61
2022/08/15 01:13:34;;;;;;;0.60;0.60;;;21.70;98.80;;;;;;5049711;28;20901;-60
2022/08/15 01:16:23;;;;;;;0.60;0.60;;;21.70;98.90;;;;;;5021361;28;20411;-61
2022/08/15 01:19:20;;;;;;;0.60;0.60;;;21.70;99.00;;;;;;5016073;28;20423;-61
2022/08/15 01:22:20;;;;;;;0.40;0.40;;;21.80;99.20;;;;;;5015797;28;20428;-61
2022/08/15 01:25:02;;;;;;;0.50;0.50;;;21.80;99.50;;;;;;5013458;28;20776;-61
2022/08/15 01:28:04;;;;;;;0.55;0.55;;;21.80;99.40;;;;;;5016725;28;20502;-61
2022/08/15 01:30:58;;;;;;;0.40;0.40;;;21.80;99.70;;;;;;5022670;28;20526;-60
2022/08/15 01:33:32;;;;;;;0.52;0.52;;;21.80;99.90;;;;;;5033222;28;20433;-60
2022/08/15 01:36:00;;;;;;;0.50;0.50;;;21.80;99.90;;;;;;5019511;28;20513;-62
2022/08/15 01:38:39;;;;;;;0.50;0.50;;;21.80;99.90;;;;;;5016530;28;20435;-61
2022/08/15 01:41:41;;;;;;;0.60;0.60;;;21.80;99.90;;;;;;5019021;28;20421;-62
2022/08/15 01:44:28;;;;;;;1.00;0.70;;;21.80;99.90;;;;;;5020365;28;20820;-62
2022/08/15 01:47:05;;;;;;;0.70;0.70;;;21.60;99.90;;;;;;5017631;28;20436;-61
2022/08/15 01:50:07;;;;;;;0.50;0.50;;;21.40;99.90;;;;;;5048647;28;20542;-61
2022/08/15 01:52:54;;;;;;;0.63;0.63;;;21.30;99.90;;;;;;5022823;28;20441;-61
2022/08/15 01:55:41;;;;;;;0.73;0.73;;;21.10;99.90;;;;;;5024502;28;20460;-61
2022/08/15 01:58:10;;;;;;;0.60;0.60;;;21.00;99.90;;;;;;5023809;28;20470;-61
2022/08/15 02:00:53;;;;;;;2.33;0.70;;;20.90;99.90;;;;;;5024936;28;20430;-61
2022/08/15 02:03:33;;;;;;;0.60;0.60;;;20.80;99.90;;;;;;5023393;28;21241;-61
2022/08/15 02:06:29;;;;;;;0.70;0.70;;;20.80;99.90;;;;;;5027250;28;20516;-61
2022/08/15 02:09:08;;;;;;;0.70;0.60;;;20.80;99.90;;;;;;5039771;28;20445;-62
2022/08/15 02:11:56;;;;;;;0.65;0.65;;;20.80;99.90;;;;;;5025903;28;20429;-62
2022/08/15 02:14:30;;;;;;;0.60;0.60;;;20.80;99.90;;;;;;5028149;28;20932;-63
2022/08/15 02:17:06;;;;;;;0.73;0.73;;;20.80;99.90;;;;;;5021994;28;20463;-62
2022/08/15 02:19:33;;;;;;;0.57;0.57;;;20.80;99.90;;;;;;5023231;28;20431;-61
2022/08/15 02:22:12;;;;;;;0.83;0.83;;;20.80;99.90;;;;;;5022347;28;20949;-61
2022/08/15 02:24:54;;;;;;;0.63;0.63;;;20.90;99.90;;;;;;5021806;28;20509;-61
2022/08/15 02:27:23;;;;;;;0.60;0.60;;;20.90;99.90;;;;;;5036065;28;20422;-61
2022/08/15 02:29:50;;;;;;;0.77;0.77;;;20.90;99.90;;;;;;5025517;28;20430;-62
2022/08/15 02:32:19;;;;;;;0.60;0.60;;;20.90;99.90;;;;;;5036339;28;20445;-62
2022/08/15 02:34:55;;;;;;;0.65;0.65;;;21.00;99.90;;;;;;5026333;28;20801;-62
2022/08/15 02:37:23;;;;;;;0.70;0.70;;;21.00;99.90;;;;;;5027648;28;20956;-62
2022/08/15 02:39:52;;;;;;;0.57;0.57;;;21.00;99.90;;;;;;5036077;28;20515;-62
2022/08/15 02:42:42;;;;;;;0.82;0.82;;;21.00;99.90;;;;;;5028490;28;20417;-61
2022/08/15 02:45:14;;;;;;;1.42;0.80;;;21.00;99.90;;;;;;5027994;28;20441;-62
2022/08/15 02:47:43;;;;;;;0.70;0.70;;;21.00;99.90;;;;;;5025718;28;22844;-62
2022/08/15 02:50:13;;;;;;;0.57;0.57;;;20.90;99.90;;;;;;5029757;28;20513;-62
2022/08/15 02:52:44;;;;;;;0.80;0.80;;;20.90;99.90;;;;;;5048497;28;20459;-62
2022/08/15 02:55:12;;;;;;;1.00;0.88;;;21.00;99.90;;;;;;5032164;28;20504;-62
2022/08/15 02:57:44;;;;;;;0.85;0.85;;;20.90;99.90;;;;;;5017550;28;21069;-62
2022/08/15 03:00:27;;;;;;;0.65;0.65;;;20.90;99.90;;;;;;5015304;28;20425;-62
2022/08/15 03:02:58;;;;;;;0.68;0.68;;;20.80;99.90;;;;;;5030680;28;20439;-62
2022/08/15 03:05:29;;;;;;;0.73;0.50;;;20.90;99.90;;;;;;5015956;28;20438;-61
2022/08/15 03:07:57;;;;;;;0.73;0.73;;;20.90;99.90;;;;;;5029900;28;20430;-62
2022/08/15 03:10:24;;;;;;;0.70;0.70;;;20.90;99.90;;;;;;5040143;28;20473;-62
2022/08/15 03:13:05;;;;;;;1.02;0.77;;;21.00;99.90;;;;;;5036138;28;20461;-62
2022/08/15 03:15:41;;;;;;;0.65;0.57;;;20.90;99.90;;;;;;5032796;28;20429;-62
2022/08/15 03:18:09;;;;;;;0.88;0.80;;;21.00;99.90;;;;;;5027595;28;20433;-62
2022/08/15 03:20:38;;;;;;;0.70;0.70;;;21.00;99.90;;;;;;5038027;28;20421;-62
2022/08/15 03:23:07;;;;;;;0.70;0.70;;;21.00;99.90;;;;;;5041509;28;20440;-62
2022/08/15 03:25:42;;;;;;;0.80;0.80;;;20.90;99.90;;;;;;5033753;28;20510;-62
2022/08/15 03:28:25;;;;;;;0.68;0.68;;;20.90;99.90;;;;;;5026245;28;20542;-62
2022/08/15 03:30:55;;;;;;;0.70;0.70;;;20.80;99.90;;;;;;5033772;28;20828;-62
2022/08/15 03:33:23;;;;;;;0.60;0.60;;;20.80;99.90;;;;;;5033959;28;20452;-62
2022/08/15 03:36:10;;;;;;;0.50;0.50;;;20.70;99.90;;;;;;5013740;28;20921;-62
2022/08/15 03:38:37;;;;;;;0.70;0.70;;;20.70;99.90;;;;;;5023206;28;20438;-62
2022/08/15 03:41:19;;;;;;;0.77;0.77;;;20.80;99.90;;;;;;5018959;28;20777;-62
2022/08/15 03:43:48;;;;;;;0.63;0.63;;;20.80;99.90;;;;;;5026169;28;20534;-62
2022/08/15 03:46:20;;;;;;;1.02;0.52;;;20.80;99.90;;;;;;5017354;28;20525;-62
2022/08/15 03:48:52;;;;;;;0.52;0.52;;;20.70;99.90;;;;;;5034063;28;20511;-62
2022/08/15 03:51:25;;;;;;;0.68;0.68;;;20.70;99.90;;;;;;5020885;28;20468;-62
2022/08/15 03:53:59;;;;;;;0.60;0.60;;;20.70;99.90;;;;;;5018050;28;20487;-62
2022/08/15 03:56:31;;;;;;;0.90;0.70;;;20.70;99.90;;;;;;5021183;28;20436;-62
2022/08/15 03:59:00;;;;;;;0.60;0.60;;;20.60;99.90;;;;;;5024699;28;20494;-61
2022/08/15 04:01:32;;;;;;;0.70;0.70;;;20.50;99.90;;;;;;5025716;28;20425;-61
2022/08/15 04:04:05;;;;;;;1.00;0.90;;;20.40;99.90;;;;;;5023277;28;20915;-61
2022/08/15 04:06:44;;;;;;;0.60;0.60;;;20.30;99.90;;;;;;5020517;28;21198;-60
2022/08/15 04:09:14;;;;;;;0.60;0.60;;;20.20;99.90;;;;;;5038721;28;20427;-61
2022/08/15 04:11:51;;;;;;;0.70;0.70;;;20.20;99.90;;;;;;5029738;28;20469;-62
2022/08/15 04:14:18;;;;;;;0.60;0.60;;;20.20;99.90;;;;;;5009725;28;20439;-61
2022/08/15 04:16:59;;;;;;;0.40;0.40;;;20.20;99.90;;;;;;5009259;28;20424;-61
2022/08/15 04:19:40;;;;;;;0.80;0.73;;;20.30;99.90;;;;;;5017807;28;20471;-61
2022/08/15 04:22:16;;;;;;;0.50;0.50;;;20.30;99.90;;;;;;5016887;28;20427;-62
2022/08/15 04:25:15;;;;;;;0.57;0.57;;;20.30;99.90;;;;;;5027186;28;20431;-61
2022/08/15 04:27:47;;;;;;;0.50;0.50;;;20.40;99.90;;;;;;5009243;28;20437;-62
2022/08/15 04:30:22;;;;;;;1.20;0.60;;;20.40;99.90;;;;;;5011567;28;20440;-62
2022/08/15 04:32:53;;;;;;;1.00;0.50;;;20.40;99.90;;;;;;5022092;28;20466;-62
2022/08/15 04:35:27;;;;;;;0.50;0.50;;;20.40;99.90;;;;;;5027081;28;20423;-62
2022/08/15 04:37:57;;;;;;;0.65;0.65;;;20.40;99.90;;;;;;5017167;28;20437;-63
2022/08/15 04:40:26;;;;;;;1.42;0.57;;;20.40;99.90;;;;;;5023857;28;20519;-62
2022/08/15 04:43:13;;;;;;;0.47;0.47;;;20.50;99.90;;;;;;5019743;28;20414;-62
2022/08/15 04:45:41;;;;;;;0.60;0.60;;;20.60;99.90;;;;;;5028555;28;20425;-62
2022/08/15 04:48:14;;;;;;;0.40;0.40;;;20.60;99.90;;;;;;5029628;28;20889;-61
2022/08/15 04:50:48;;;;;;;0.60;0.60;;;20.60;99.90;;;;;;5017935;28;20808;-61
2022/08/15 04:53:16;;;;;;;0.75;0.47;;;20.60;99.90;;;;;;5013244;28;21094;-61
2022/08/15 04:55:52;;;;;;;0.60;0.60;;;20.60;99.90;;;;;;5036720;28;20915;-61
2022/08/15 04:58:26;;;;;;;0.68;0.68;;;20.60;99.90;;;;;;5022715;28;20435;-61
2022/08/15 05:01:13;;;;;;;0.60;0.60;;;20.60;99.90;;;;;;5035531;28;20428;-62
2022/08/15 05:03:49;;;;;;;0.50;0.50;;;20.60;99.90;;;;;;5033807;28;20455;-62
2022/08/15 05:06:21;;;;;;;0.50;0.50;;;20.50;99.90;;;;;;5030489;28;20470;-62
2022/08/15 05:08:57;;;;;;;0.40;0.40;;;20.60;99.90;;;;;;5029552;28;20435;-62
2022/08/15 05:11:24;;;;;;;0.80;0.50;;;20.50;99.90;;;;;;5037652;28;20462;-61
2022/08/15 05:14:11;;;;;;;0.80;0.80;;;20.50;99.90;;;;;;5028586;28;20447;-62
2022/08/15 05:16:57;;;;;;;0.43;0.43;;;20.50;99.90;;;;;;5034303;28;20426;-61
2022/08/15 05:19:24;;;;;;;0.50;0.50;;;20.50;99.90;;;;;;5027843;28;20431;-62
2022/08/15 05:21:51;;;;;;;0.47;0.47;;;20.60;99.90;;;;;;5021241;28;20435;-62
2022/08/15 05:24:18;;;;;;;0.50;0.50;;;20.60;99.90;;;;;;5019040;28;20449;-61
2022/08/15 05:26:55;;;;;;;0.35;0.35;;;20.70;99.90;;;;;;5031790;28;20434;-60
2022/08/15 05:29:29;;;;;;;0.73;0.60;;;20.80;99.90;;;;;;5020815;28;20488;-61
2022/08/15 05:31:56;;;;;;;0.50;0.50;;;20.80;99.90;;;;;;5028022;28;20460;-61
2022/08/15 05:34:24;;;;;;;0.40;0.40;;;20.80;99.90;;;;;;5017014;28;20439;-61
2022/08/15 05:37:09;;;;;;;0.40;0.40;;;20.90;99.90;;;;;;5025236;28;20448;-61
2022/08/15 05:39:38;;;;;;;0.40;0.40;;;20.90;99.90;;;;;;5023297;28;20435;-60
2022/08/15 05:42:30;;;;;;;0.63;0.63;;;21.00;99.90;;;;;;5020230;28;20468;-61
2022/08/15 05:45:08;;;;;;;0.40;0.40;;;21.00;99.90;;;;;;5051994;28;20520;-61
2022/08/15 05:48:11;;;;;;;0.47;0.47;;;21.10;99.90;;;;;;5018230;28;20440;-62
2022/08/15 05:50:49;;;;;;;0.60;0.60;;;21.10;99.90;;;;;;5019528;28;20440;-63
2022/08/15 05:54:04;;;;;;;0.50;0.50;;;21.20;99.90;;;;;;5025894;28;20930;-61
2022/08/15 05:56:48;;;;;;;0.47;0.47;;;21.30;99.90;;;;;;5019779;28;20531;-61
2022/08/15 05:59:17;;;;;;;0.63;0.63;;;21.40;99.90;;;;;;5015474;28;20433;-62
2022/08/15 06:01:55;;;;;;;0.50;0.50;;;21.50;99.90;;;;;;5019272;28;20802;-61
2022/08/15 06:04:50;;;;;;;0.50;0.50;;;21.70;99.90;;;;;;5020964;28;20424;-62
2022/08/15 06:07:19;;;;;;;0.50;0.50;;;21.80;99.90;;;;;;5020452;28;21425;-62
2022/08/15 06:10:04;;;;;;;0.57;0.57;;;21.80;99.90;;;;;;5017991;28;20476;-62
2022/08/15 06:13:00;;;;;;;0.50;0.50;;;21.90;99.90;;;;;;5021342;28;20577;-61
2022/08/15 06:15:47;;;;;;;0.50;0.47;;;22.10;99.90;;;;;;5023522;28;21071;-62
2022/08/15 06:18:22;;;;;;;0.60;0.60;;;22.30;99.90;;;;;;5024608;28;20478;-62
2022/08/15 06:21:15;;;;;;;0.90;0.63;;;22.60;99.90;;;;;;5023775;28;20433;-62
2022/08/15 06:24:07;;;;;;;0.47;0.47;;;23.40;99.90;;;;;;5022418;28;20484;-62
2022/08/15 06:26:56;;;;;;;0.50;0.50;;;24.60;99.90;;;;;;5032590;28;20551;-61
2022/08/15 06:29:49;;;;;;;0.57;0.57;;;25.40;99.90;;;;;;5019459;28;20945;-62
2022/08/15 06:32:34;;;;;;;0.60;0.60;;;25.60;99.90;;;;;;5014431;28;20539;-61
2022/08/15 06:35:11;;;;;;;0.50;0.50;;;25.30;99.90;;;;;;5012913;28;20985;-61
2022/08/15 06:38:08;;;;;;;0.50;0.50;;;24.90;99.90;;;;;;5012091;28;20440;-61
2022/08/15 06:41:20;;;;;;;0.60;0.60;;;24.90;99.90;;;;;;5053442;28;20419;-62
2022/08/15 06:43:52;;;;;;;0.43;0.43;;;25.40;99.90;;;;;;5019096;28;20447;-62
2022/08/15 06:46:27;;;;;;;0.77;0.77;;;25.90;99.90;;;;;;5015934;28;20484;-62
2022/08/15 06:49:19;;;;;;;1.00;0.65;;;26.40;99.90;;;;;;5020356;28;20913;-62
2022/08/15 06:51:51;;;;;;;0.60;0.60;;;27.10;99.90;;;;;;5012641;28;20432;-61
2022/08/15 06:54:29;;;;;;;1.60;0.60;;;27.10;99.90;;;;;;5017758;28;20439;-62
2022/08/15 06:57:27;;;;;;;0.60;0.60;;;26.60;99.90;;;;;;5009232;28;20549;-60
2022/08/15 07:00:08;;;;;;;0.60;0.50;;;26.20;99.90;;;;;;5016888;28;20478;-62
2022/08/15 07:03:00;;;;;;;0.90;0.60;;;26.20;99.90;;;;;;5015604;28;20482;-62
2022/08/15 07:05:28;;;;;;;0.43;0.43;;;26.00;99.90;;;;;;5017983;28;20433;-61
2022/08/15 07:08:11;;;;;;;0.60;0.60;;;25.90;99.90;;;;;;5018017;28;20445;-61
2022/08/15 07:11:09;;;;;;;0.40;0.40;;;25.30;99.90;;;;;;5019489;28;20435;-61
2022/08/15 07:13:59;;;;;;;0.40;0.40;;;25.30;99.90;;;;;;5032767;28;20438;-60
2022/08/15 07:17:00;;;;;;;0.60;0.60;;;24.70;99.90;;;;;;5028893;28;20908;-60
2022/08/15 07:19:27;;;;;;;0.63;0.63;;;24.40;99.90;;;;;;5020113;28;20471;-59
2022/08/15 07:22:01;;;;;;;0.63;0.57;;;24.00;99.90;;;;;;5031436;28;20459;-60
2022/08/15 07:24:33;;;;;;;0.60;0.60;;;24.10;99.90;;;;;;5012827;28;20434;-61
2022/08/15 07:27:17;;;;;;;0.60;0.60;;;24.20;99.90;;;;;;5018262;28;20443;-62
2022/08/15 07:29:45;;;;;;;0.50;0.50;;;24.20;99.90;;;;;;5016156;28;20877;-62
2022/08/15 07:32:44;;;;;;;1.30;0.60;;;24.00;99.90;;;;;;5017682;28;20436;-60
2022/08/15 07:35:13;;;;;;;0.52;0.52;;;23.70;99.90;;;;;;5011930;28;21433;-61
2022/08/15 07:37:56;;;;;;;0.50;0.50;;;23.60;99.90;;;;;;5016752;28;20884;-61
2022/08/15 07:40:34;;;;;;;0.90;0.52;;;23.20;99.90;;;;;;5032120;28;21258;-61
2022/08/15 07:43:28;;;;;;;0.60;0.60;;;23.30;99.90;;;;;;5015734;28;20936;-61
2022/08/15 07:46:18;;;;;;;0.50;0.50;;;24.00;99.90;;;;;;5019465;28;20446;-61
2022/08/15 07:49:06;;;;;;;0.63;0.63;;;24.10;99.90;;;;;;5022603;28;20514;-61
2022/08/15 07:51:57;;;;;;;0.50;0.50;;;24.00;99.90;;;;;;5016256;28;20430;-61
2022/08/15 07:54:46;;;;;;;0.68;0.68;;;24.10;99.90;;;;;;5020293;28;20441;-61
2022/08/15 07:57:41;;;;;;;0.40;0.40;;;23.60;99.90;;;;;;5016602;28;20428;-62
2022/08/15 08:00:27;;;;;;;0.63;0.57;;;24.00;99.90;;;;;;5014582;28;20439;-61
2022/08/15 08:03:25;;;;;;;1.00;0.52;;;24.50;99.90;;;;;;5018943;28;20435;-62
2022/08/15 08:06:12;;;;;;;0.57;0.57;;;24.50;99.90;;;;;;5015589;28;20439;-61
2022/08/15 08:09:22;;;;;;;0.40;0.40;;;24.90;99.90;;;;;;5009606;28;20440;-61
2022/08/15 08:11:55;;;;;;;0.80;0.80;;;24.90;99.90;;;;;;5032024;28;20470;-61
2022/08/15 08:14:39;;;;;;;0.47;0.47;;;25.00;99.90;;;;;;5014189;28;20432;-61
2022/08/15 08:17:24;;;;;;;0.38;0.38;;;25.00;99.90;;;;;;5010229;28;20946;-61
2022/08/15 08:20:41;;;;;;;0.50;0.50;;;24.90;99.90;;;;;;5012153;28;20444;-60
2022/08/15 08:23:19;;;;;;;0.57;0.57;;;25.00;99.90;;;;;;5017528;28;20984;-61
2022/08/15 08:26:06;;;;;;;0.53;0.53;;;25.10;99.90;;;;;;5011357;28;20436;-61
2022/08/15 08:29:05;;;;;;;0.55;0.55;;;25.80;99.90;;;;;;5023101;28;20464;-62
2022/08/15 08:31:55;;;;;;;0.60;0.60;;;25.80;99.90;;;;;;5011672;28;20888;-61
2022/08/15 08:34:46;;;;;;;0.60;0.60;;;25.80;99.90;;;;;;5014739;28;21006;-61
2022/08/15 08:37:21;;;;;;;1.50;0.40;;;26.90;99.90;;;;;;5018545;28;20433;-61
2022/08/15 08:43:39;;;;;;;0.50;0.50;;;28.10;99.90;;;;;;4998663;28;20441;-62
2022/08/15 08:46:32;;;;;;;0.52;0.52;;;28.90;99.70;;;;;;5003429;28;20602;-62
2022/08/15 08:49:23;;;;;;;0.55;0.55;;;29.10;99.30;;;;;;4997912;28;20444;-62
2022/08/15 08:52:12;;;;;;;0.50;0.50;;;29.20;98.30;;;;;;5001495;28;20471;-62
2022/08/15 08:55:27;;;;;;;1.10;0.70;;;27.70;98.90;;;;;;5008746;28;21058;-61
2022/08/15 08:58:40;;;;;;;0.60;0.60;;;27.40;99.50;;;;;;4940460;29;20492;-62
2022/08/15 09:01:15;;;;;;;0.43;0.43;;;26.80;99.90;;;;;;4889650;29;20889;-62
2022/08/15 09:03:51;;;;;;;0.60;0.60;;;25.90;99.90;;;;;;4907867;29;20525;-61
2022/08/15 09:06:24;;;;;;;0.50;0.50;;;25.90;99.90;;;;;;4904723;29;20437;-61
2022/08/15 09:09:27;;;;;;;1.10;0.68;;;25.40;99.90;;;;;;4905194;29;20441;-62
2022/08/15 09:15:17;;;;;;;0.57;0.50;;;24.80;99.90;;;;;;4907843;29;20520;-60
2022/08/15 09:17:52;;;;;;;0.70;0.70;;;24.60;99.90;;;;;;4910389;29;20431;-61
2022/08/15 09:20:31;;;;;;;0.55;0.55;;;24.60;99.90;;;;;;4910196;29;20522;-61
2022/08/15 09:23:02;;;;;;;0.50;0.50;;;25.10;99.90;;;;;;4911887;29;20441;-61
2022/08/15 09:25:33;;;;;;;0.40;0.40;;;25.80;99.90;;;;;;4906505;29;20999;-61
2022/08/15 09:28:15;;;;;;;0.47;0.47;;;26.50;99.90;;;;;;4896796;29;20449;-62
2022/08/15 09:31:04;;;;;;;0.50;0.50;;;26.80;99.90;;;;;;4909213;29;20448;-63
2022/08/15 09:33:43;;;;;;;0.50;0.50;;;26.70;99.90;;;;;;4892585;29;20446;-63
2022/08/15 09:36:26;;;;;;;0.50;0.50;;;26.60;99.90;;;;;;4945382;28;20899;-62
2022/08/15 09:39:07;;;;;;;0.50;0.50;;;26.80;99.90;;;;;;5008300;28;20431;-62
2022/08/15 09:41:51;;;;;;;0.63;0.63;;;26.80;99.90;;;;;;5014239;28;20442;-62
2022/08/15 09:44:58;;;;;;;0.50;0.50;;;27.40;99.90;;;;;;5032158;28;20445;-62
2022/08/15 09:47:48;;;;;;;0.50;0.50;;;27.90;99.70;;;;;;5012254;28;20506;-63
2022/08/15 09:50:59;;;;;;;0.40;0.40;;;28.40;99.00;;;;;;5026041;28;20431;-59
2022/08/15 09:53:37;;;;;;;0.55;0.55;;;;;;;;;;5025698;28;20434;-60
2022/08/15 09:56:30;;;;;;;0.68;0.68;;;;;;;;;;5019546;28;20415;-59
2022/08/15 09:59:07;;;;;;;0.50;0.50;;;;;;;;;;5019787;28;20432;-61
2022/08/15 10:01:43;;;;;;;0.70;0.40;;;;;;;;;;5030446;28;20440;-59
2022/08/15 10:04:40;;;;;;;0.55;0.55;;;28.70;98.80;;;;;;5019275;28;20482;-61
2022/08/15 10:07:07;;;;;;;0.90;0.60;;;30.70;96.70;;;;;;5022818;28;20429;-60
2022/08/15 10:10:04;;;;;;;0.60;0.60;;;31.60;95.40;;;;;;5031956;28;20509;-60
2022/08/15 10:12:32;;;;;;;0.60;0.60;;;31.70;95.00;;;;;;5019173;28;21548;-60
2022/08/15 10:15:25;;;;;;;0.63;0.60;;;31.80;94.30;;;;;;5012734;28;22236;-62
2022/08/15 10:17:53;;;;;;;0.50;0.50;;;31.80;94.20;;;;;;5027070;28;20431;-62
2022/08/15 10:20:28;;;;;;;0.60;0.60;;;32.20;94.00;;;;;;5026693;28;20921;-62
2022/08/15 10:23:14;;;;;;;0.60;0.60;;;32.20;93.60;;;;;;5036370;28;20504;-60
2022/08/15 10:25:46;;;;;;;0.57;0.57;;;32.30;93.20;;;;;;5013038;28;20446;-62
2022/08/15 10:28:24;;;;;;;0.60;0.60;;;32.10;93.70;;;;;;5017593;28;20610;-61
2022/08/15 10:31:05;;;;;;;0.50;0.50;;;32.00;93.20;;;;;;5031933;28;20944;-62
2022/08/15 10:33:44;;;;;;;0.60;0.60;;;32.50;93.20;;;;;;5043393;28;21054;-61
2022/08/15 10:36:36;;;;;;;0.68;0.68;;;32.80;92.60;;;;;;5021174;28;20473;-61
2022/08/15 10:39:29;;;;;;;0.63;0.63;;;32.80;92.00;;;;;;5023450;28;20431;-64
2022/08/15 10:42:28;;;;;;;0.55;0.55;;;33.00;92.20;;;;;;5026088;28;20434;-64
2022/08/15 10:44:56;;;;;;;0.70;0.70;;;32.80;92.30;;;;;;5024019;28;20440;-63
2022/08/15 10:47:47;;;;;;;0.43;0.43;;;32.10;92.30;;;;;;5029220;28;20848;-63
2022/08/15 10:51:00;;;;;;;0.50;0.50;;;32.00;92.90;;;;;;5018991;28;20765;-63
2022/08/15 10:53:48;;;;;;;0.60;0.60;;;31.70;92.40;;;;;;5026348;28;20437;-61
2022/08/15 10:56:26;;;;;;;0.60;0.60;;;32.50;91.70;;;;;;5019798;28;20435;-62
2022/08/15 10:59:18;;;;;;;0.52;0.52;;;33.10;91.20;;;;;;5020596;28;20424;-61
2022/08/15 11:01:47;;;;;;;0.60;0.60;;;33.10;91.20;;;;;;5023249;28;20434;-62
2022/08/15 11:04:27;;;;;;;0.70;0.70;;;32.90;91.20;;;;;;5018217;28;21027;-62
2022/08/15 11:07:26;;;;;;;0.60;0.60;;;32.60;91.70;;;;;;5018668;28;20430;-63
2022/08/15 11:09:58;;;;;;;0.70;0.70;;;32.50;92.00;;;;;;5017439;28;20443;-62
2022/08/15 11:12:29;;;;;;;0.57;0.57;;;33.10;91.70;;;;;;5019169;28;20449;-62
2022/08/15 11:15:21;;;;;;;0.70;0.50;;;33.50;91.10;;;;;;5020008;28;20436;-62
2022/08/15 11:18:04;;;;;;;0.55;0.55;;;33.40;90.60;;;;;;5022132;28;20784;-62
2022/08/15 11:20:53;;;;;;;0.60;0.60;;;32.40;91.00;;;;;;5011554;28;20511;-62
2022/08/15 11:23:39;;;;;;;0.77;0.77;;;31.10;92.70;;;;;;5012841;28;20512;-62
2022/08/15 11:26:11;;;;;;;0.77;0.77;;;30.30;93.10;;;;;;5017287;28;20443;-62
2022/08/15 11:29:08;;;;;;;0.70;0.60;;;29.50;94.30;;;;;;5015331;28;20503;-62
2022/08/15 11:31:53;;;;;;;0.50;0.50;;;28.70;95.20;;;;;;5018196;28;20437;-63
2022/08/15 11:34:28;;;;;;;0.67;0.67;;;27.90;96.20;;;;;;5019545;28;20469;-61
2022/08/15 11:37:20;;;;;;;0.63;0.60;;;27.30;96.80;;;;;;5022579;28;20463;-61
2022/08/15 11:39:58;;;;;;;0.88;0.88;;;26.50;98.40;;;;;;5023141;28;20465;-61
2022/08/15 11:42:29;;;;;;;1.05;1.00;;;25.40;99.90;;;;;;5023131;28;20431;-67
2022/08/15 11:45:00;;;;;;;1.00;0.90;;;24.50;99.90;;;;;;5021623;28;20925;-61
2022/08/15 11:47:31;;;;;;;0.80;0.80;;;23.90;99.90;;;;;;5026854;28;20427;-61
2022/08/15 11:50:06;;;;;;;0.80;0.80;;;23.30;99.90;;;;;;5013892;28;20435;-61
2022/08/15 11:52:47;;;;;;;0.73;0.73;;;22.90;99.90;;;;;;5018816;28;20905;-62
2022/08/15 11:55:26;;;;;;;0.88;0.88;;;22.80;99.90;;;;;;5027448;28;20900;-61
2022/08/15 11:58:05;;;;;;;0.80;0.80;;;22.30;99.90;;;;;;5024958;28;21296;-61
2022/08/15 12:00:45;;;;;;;0.75;0.75;;;21.40;99.90;;;;;;5012399;28;20434;-61
2022/08/15 12:03:35;;;;;;;0.90;0.90;;;20.50;99.90;;;;;;5017412;28;20442;-61
2022/08/15 12:06:35;;;;;;;0.82;0.82;;;19.80;99.90;;;;;;5019718;28;20421;-65
2022/08/15 12:09:26;;;;;;;1.17;0.85;;;19.30;99.90;;;;;;5017309;28;20521;-68
2022/08/15 12:12:38;;;;;;;0.77;0.77;;;18.90;99.90;;;;;;5032793;28;20452;-71
2022/08/15 12:15:09;;;;;;;0.80;0.80;;;18.90;99.90;;;;;;5018262;28;20439;-72
2022/08/15 12:17:36;;;;;;;0.63;0.63;;;18.90;99.90;;;;;;5020697;28;20431;-72
2022/08/15 12:20:48;;;;;;;0.60;0.60;;;19.00;99.90;;;;;;5015940;28;20426;-70
2022/08/15 12:23:35;;;;;;;0.55;0.55;;;19.40;99.90;;;;;;5017629;28;20515;-70
2022/08/15 12:26:15;;;;;;;0.70;0.70;;;19.80;99.90;;;;;;5019958;28;20975;-69
2022/08/15 12:29:02;;;;;;;0.80;0.80;;;20.20;99.90;;;;;;5017621;28;21139;-68
2022/08/15 12:31:37;;;;;;;1.25;0.93;;;20.60;99.90;;;;;;5013666;28;20496;-68
2022/08/15 12:34:23;;;;;;;0.80;0.80;;;20.90;99.90;;;;;;5017932;28;20476;-67
2022/08/15 12:37:18;;;;;;;0.80;0.80;;;21.50;99.90;;;;;;5015620;28;20438;-68
2022/08/15 12:40:07;;;;;;;0.80;0.73;;;22.40;99.90;;;;;;5023639;28;20417;-66
2022/08/15 12:42:57;;;;;;;0.68;0.68;;;23.20;99.90;;;;;;5018334;28;20434;-67
2022/08/15 12:45:26;;;;;;;0.80;0.80;;;23.90;99.90;;;;;;5019662;28;20977;-68
2022/08/15 12:48:04;;;;;;;0.70;0.70;;;24.60;99.90;;;;;;5021300;28;20436;-68
2022/08/15 12:50:35;;;;;;;0.68;0.68;;;25.20;99.90;;;;;;5016625;28;20433;-69
2022/08/15 12:53:04;;;;;;;0.60;0.60;;;25.50;99.90;;;;;;5017182;28;20441;-68
2022/08/15 12:55:40;;;;;;;0.50;0.50;;;25.90;99.90;;;;;;5023482;28;20531;-68
2022/08/15 12:58:11;;;;;;;0.90;0.90;;;26.10;99.90;;;;;;5010381;28;20429;-69
2022/08/15 13:00:47;;;;;;;0.60;0.60;;;26.40;99.90;;;;;;5009681;28;20440;-67
2022/08/15 13:03:31;;;;;;;0.50;0.50;;;26.90;99.90;;;;;;5026214;28;20423;-67
2022/08/15 13:06:52;;;;;;;0.50;0.50;;;27.50;99.90;;;;;;5008363;28;21095;-67
2022/08/15 13:09:24;;;;;;;0.60;0.60;;;27.70;99.90;;;;;;5022558;28;20441;-66
2022/08/15 13:11:53;;;;;;;0.45;0.45;;;28.00;99.90;;;;;;5020257;28;20427;-67
2022/08/15 13:14:21;;;;;;;0.60;0.60;;;28.30;99.90;;;;;;5019131;28;20766;-66
2022/08/15 13:16:50;;;;;;;0.50;0.50;;;28.00;99.90;;;;;;5004798;28;20923;-66
2022/08/15 13:25:18;;;;;;;0.60;0.60;;;29.70;99.90;;;;;;5019364;28;20427;-66
2022/08/15 13:27:49;;;;;;;0.43;0.43;;;30.10;99.90;;;;;;5026818;28;20441;-65
2022/08/15 13:30:19;;;;;;;0.30;0.30;;;29.90;99.90;;;;;;5029708;28;20852;-65
2022/08/15 13:32:47;;;;;;;0.40;0.40;;;29.80;99.90;;;;;;5022466;28;20441;-65
2022/08/15 13:35:19;;;;;;;0.40;0.40;;;29.60;99.90;;;;;;5024799;28;20557;-69
2022/08/15 13:37:47;;;;;;;0.30;0.30;;;30.00;99.90;;;;;;5025742;28;20431;-66
2022/08/15 13:40:30;;;;;;;0.38;0.38;;;;;;;;;;5021591;28;20430;-66
2022/08/15 13:43:01;;;;;;;0.32;0.32;;;;;;;;;;5035841;28;20429;-66
2022/08/15 13:45:39;;;;;;;0.40;0.40;;;30.20;99.90;;;;;;5029230;28;20436;-67
2022/08/15 13:48:36;;;;;;;0.40;0.40;;;30.50;99.90;;;;;;5023259;28;20464;-66
2022/08/15 13:51:30;;;;;;;0.33;0.33;;;30.30;99.90;;;;;;5023508;28;20519;-67
2022/08/15 13:54:19;;;;;;;0.47;0.47;;;30.00;99.90;;;;;;5012848;28;20435;-68
2022/08/15 13:57:07;;;;;;;0.40;0.40;;;29.50;99.80;;;;;;5017228;28;20432;-67
2022/08/15 13:59:38;;;;;;;0.50;0.50;;;29.20;99.80;;;;;;5018092;28;20432;-66
2022/08/15 14:02:07;;;;;;;0.50;0.50;;;29.60;99.90;;;;;;5015851;28;20429;-68
2022/08/15 14:04:59;;;;;;;0.45;0.45;;;30.20;99.00;;;;;;5017883;28;20449;-65
2022/08/15 14:07:30;;;;;;;0.40;0.40;;;30.00;99.10;;;;;;5016658;28;20442;-66
2022/08/15 14:10:20;;;;;;;0.47;0.47;;;29.20;99.90;;;;;;5020930;28;20495;-66
2022/08/15 14:13:10;;;;;;;0.50;0.50;;;28.80;99.90;;;;;;5016357;28;20460;-65
2022/08/15 14:15:41;;;;;;;0.43;0.43;;;28.90;99.90;;;;;;5017383;28;20443;-68
2022/08/15 14:18:29;;;;;;;0.43;0.43;;;29.50;99.90;;;;;;5017827;28;20435;-66